Portada
METAR-TAF:

METAR-TAF

Aeroports :

Edgar County Airport

Paris, Illinois, Estats Units d'Amèrica

latitud: 39-42-01N, longitud: 087-40-11W, altitud: 199 m

Observació

L'informe es va fer fa 22 minuts, a les 00:35 UTC
Vent 10 kt del Oest/Nord-Oest
Temperatura 18°C
Humitat 56%
Pressió 1013 hPa
Visibilitat: 16.1 km
Cel clar

METAR: KPRG 180035Z AUTO 29010KT 10SM CLR 18/09 A2992 RMK AO2 T01770085

Hora: 19:57 (00:57 UTC)


TAF: manca

Observacions i pronòstics meteorològics de més de 4000 aeroports (METAR i TAF).

Les estacions disponibles són els punts grocs i vermells al mapa.

Posi el ratolí al punt desitjat per veure el nom de l'estació.

Feu clic per veure les observacions i els pronòstics meteorològics.

Per canviar el mapa: feu clic els botons verds amb una creu de color negre per apropar; al botó verd amb un guió per allunyar la imatge; o en les fletxes verdes per a mapes adjacents.


METAR-TAF: